Погода Ривасна неделю

Рива, Никарагуа

22 - 28 февраля
  • 22февраля
    Сегодня
    +22°
    +31°
    Ясно и безоблачно
    ВремяПогодаТемператураВлажностьДавлениеВетер, м/сВероятность осадков
    00:00Ясно и безоблачно+25°C73 %756 мм8.2 м/с4 %
    03:00Ясно и безоблачно+23°C65 %755 мм8.1 м/с3 %
    06:00Ясно и безоблачно+22°C68 %756 мм4.3 м/с2 %
    09:00Ясно и безоблачно+25°C50 %756 мм5.3 м/с1 %
    12:00Ясно и безоблачно+28°C41 %754 мм5.5 м/с2 %
    15:00Ясно и безоблачно+31°C42 %752 мм4.3 м/с2 %
    18:00Ясно и безоблачно+29°C49 %752 мм5.8 м/с2 %
    21:00Ясно и безоблачно+26°C60 %754 мм7.8 м/с2 %
  • 23февраля
    Пятница
    +22°
    +32°
    Ясно и безоблачно
    ВремяПогодаТемператураВлажностьДавлениеВетер, м/сВероятность осадков
    00:00Ясно и безоблачно+24°C68 %754 мм6.7 м/с2 %
    03:00Ясно и безоблачно+23°C69 %753 мм6.4 м/с2 %
    06:00Ясно и безоблачно+22°C72 %753 мм2.9 м/с2 %
    09:00Ясно и безоблачно+26°C57 %754 мм3.4 м/с2 %
    12:00Ясно и безоблачно+29°C50 %753 мм3.8 м/с2 %
    15:00Ясно и безоблачно+31°C47 %751 мм2.9 м/с2 %
    18:00Ясно и безоблачно+29°C56 %751 мм3.1 м/с2 %
    21:00Ясно и безоблачно+28°C63 %753 мм6.5 м/с2 %
  • 24февраля
    Суббота
    +22°
    +33°
    Ясно и безоблачно
    ВремяПогодаТемператураВлажностьДавлениеВетер, м/сВероятность осадков
    00:00Ясно и безоблачно+25°C71 %754 мм6.0 м/с2 %
    03:00Ясно и безоблачно+24°C75 %753 мм5.3 м/с2 %
    06:00Ясно и безоблачно+23°C79 %754 мм1.9 м/с2 %
    09:00Ясно и безоблачно+27°C64 %756 мм2.9 м/с3 %
    12:00Ясно и безоблачно+30°C50 %755 мм3.7 м/с2 %
    15:00Ясно и безоблачно+32°C41 %753 мм4.0 м/с2 %
    18:00Ясно и безоблачно+30°C51 %753 мм6.3 м/с2 %
    21:00Ясно и безоблачно+27°C71 %756 мм8.0 м/с2 %
  • 25февраля
    Воскресенье
    +22°
    +32°
    Ясно и безоблачно
    ВремяПогодаТемператураВлажностьДавлениеВетер, м/сВероятность осадков
    00:00Небольшая облачность+25°C70 %756 мм7.7 м/с2 %
    03:00Ясно и безоблачно+24°C67 %755 мм8.5 м/с2 %
    06:00Ясно и безоблачно+23°C68 %756 мм4.1 м/с2 %
    09:00Ясно и безоблачно+27°C53 %757 мм5.0 м/с2 %
    12:00Ясно и безоблачно+30°C41 %756 мм5.5 м/с2 %
    15:00Ясно и безоблачно+32°C38 %753 мм5.0 м/с2 %
    18:00Ясно и безоблачно+29°C46 %754 мм7.4 м/с2 %
    21:00Ясно и безоблачно+27°C63 %756 мм7.9 м/с2 %
Мы используем cookies
Соглашаюсь